Time;durP1;ratioP1;P1;durP2;ratioP2;P2;SDS_P1;SDS_P2;PMS_P1;PMS_P2;Temp;Humidity;BMP_temperature;BMP_pressure;BME280_temperature;BME280_humidity;BME280_pressure;Samples;Min_cycle;Max_cycle;Signal;HPM_P1;HPM_P2
2024/01/19 00:01:05;;;;;;;16.70;9.80;;;;;;;11.29;68.08;99424.59;104724;1266;72512;-53
2024/01/19 00:03:33;;;;;;;18.30;9.70;;;;;;;11.29;68.13;99421.80;104754;1266;60076;-52
2024/01/19 00:06:01;;;;;;;23.10;11.10;;;;;;;11.28;68.17;99419.34;104564;1264;59730;-53
2024/01/19 00:08:29;;;;;;;16.40;9.50;;;;;;;11.29;68.32;99419.16;104564;1270;73145;-53
2024/01/19 00:10:56;;;;;;;18.40;9.20;;;;;;;11.28;68.24;99416.89;104691;1264;73433;-53
2024/01/19 00:13:24;;;;;;;19.40;11.30;;;;;;;11.28;68.18;99412.35;104699;1264;71654;-53
2024/01/19 00:15:52;;;;;;;17.60;9.90;;;;;;;11.27;68.18;99422.20;105246;1260;59659;-54
2024/01/19 00:18:22;;;;;;;22.00;11.30;;;;;;;11.25;68.09;99429.81;105222;1255;59685;-53
2024/01/19 00:20:50;;;;;;;19.50;10.50;;;;;;;11.23;68.08;99430.06;105214;1254;73372;-53
2024/01/19 00:23:18;;;;;;;15.20;10.10;;;;;;;11.21;68.02;99429.42;105210;1255;73499;-52
2024/01/19 00:25:46;;;;;;;32.80;13.60;;;;;;;11.19;68.04;99430.55;105130;1260;71440;-53
2024/01/19 00:28:14;;;;;;;18.50;10.00;;;;;;;11.18;68.09;99427.75;105235;1260;60686;-53
2024/01/19 00:30:42;;;;;;;20.20;9.50;;;;;;;11.18;67.98;99426.70;105175;1254;62000;-52
2024/01/19 00:33:10;;;;;;;18.20;10.60;;;;;;;11.16;68.02;99433.27;105284;1254;72617;-52
2024/01/19 00:35:38;;;;;;;21.20;10.40;;;;;;;11.14;67.97;99438.07;105258;1260;71577;-51
2024/01/19 00:38:06;;;;;;;21.50;10.90;;;;;;;11.11;68.01;99436.23;105214;1254;71409;-53
2024/01/19 00:40:34;;;;;;;17.20;9.60;;;;;;;11.08;68.02;99437.52;105207;1254;60508;-52
2024/01/19 00:43:03;;;;;;;17.10;9.70;;;;;;;11.07;68.15;99433.54;105262;1255;60587;-53
2024/01/19 00:45:30;;;;;;;18.60;9.80;;;;;;;11.08;68.11;99438.95;105239;1255;72651;-53
2024/01/19 00:47:58;;;;;;;19.00;10.20;;;;;;;11.07;68.09;99439.33;105089;1263;72311;-52
2024/01/19 00:50:26;;;;;;;17.50;10.30;;;;;;;11.06;68.15;99445.52;105149;1260;71421;-52
2024/01/19 00:52:54;;;;;;;19.20;9.70;;;;;;;11.06;68.19;99446.75;105196;1255;60595;-51
2024/01/19 00:55:22;;;;;;;17.10;9.10;;;;;;;11.03;68.17;99444.90;105181;1254;60456;-51
2024/01/19 00:57:50;;;;;;;21.00;10.50;;;;;;;11.03;68.11;99448.23;105213;1260;72711;-52
2024/01/19 01:00:18;;;;;;;17.60;9.30;;;;;;;11.03;68.07;99440.33;105192;1260;71614;-53
2024/01/19 01:02:46;;;;;;;16.60;9.80;;;;;;;11.02;68.15;99438.26;105169;1254;72006;-54
2024/01/19 01:05:13;;;;;;;19.30;10.20;;;;;;;11.02;68.07;99439.30;105219;1260;60354;-53
2024/01/19 01:07:42;;;;;;;19.10;10.70;;;;;;;11.02;68.12;99435.09;105032;1254;60603;-54
2024/01/19 01:10:09;;;;;;;17.30;10.30;;;;;;;11.02;68.08;99433.18;105252;1260;72668;-54
2024/01/19 01:12:37;;;;;;;14.50;9.90;;;;;;;11.01;68.13;99432.13;105025;1262;71622;-54
2024/01/19 01:15:05;;;;;;;22.50;9.70;;;;;;;11.02;68.08;99431.05;105177;1255;71443;-55
2024/01/19 01:17:33;;;;;;;20.40;10.80;;;;;;;11.03;68.04;99431.56;105250;1259;60425;-54
2024/01/19 01:20:04;;;;;;;15.00;9.90;;;;;;;11.03;68.11;99435.23;105089;1255;60505;-55
2024/01/19 01:22:32;;;;;;;16.10;10.60;;;;;;;11.04;68.07;99425.73;105240;1259;73724;-54
2024/01/19 01:25:00;;;;;;;15.30;9.80;;;;;;;11.04;68.02;99422.55;105630;1251;72833;-53
2024/01/19 01:27:28;;;;;;;15.60;9.90;;;;;;;11.03;67.90;99416.81;105651;1251;73328;-53
2024/01/19 01:29:56;;;;;;;20.20;9.70;;;;;;;11.04;67.85;99408.19;105658;1251;60808;-54
2024/01/19 01:32:24;;;;;;;18.10;10.20;;;;;;;11.06;67.83;99403.39;105617;1251;60471;-54
2024/01/19 01:34:52;;;;;;;14.20;9.40;;;;;;;11.06;67.63;99404.61;105625;1255;73852;-54
2024/01/19 01:37:19;;;;;;;17.50;11.20;;;;;;;11.05;67.68;99407.98;105282;1251;72751;-54
2024/01/19 01:39:47;;;;;;;17.70;10.70;;;;;;;11.04;67.61;99405.56;105633;1251;72075;-54
2024/01/19 01:42:15;;;;;;;15.10;10.20;;;;;;;11.04;67.49;99404.69;105643;1255;60415;-55
2024/01/19 01:44:45;;;;;;;14.10;9.20;;;;;;;11.01;67.57;99401.08;105604;1251;60389;-55
2024/01/19 01:47:15;;;;;;;19.50;10.70;;;;;;;11.00;67.47;99401.83;105708;1251;73943;-53
2024/01/19 01:49:43;;;;;;;20.10;11.20;;;;;;;10.98;67.55;99412.23;105390;1260;71843;-53
2024/01/19 01:52:11;;;;;;;18.60;10.20;;;;;;;10.97;67.66;99415.95;105698;1251;71493;-54
2024/01/19 01:54:39;;;;;;;18.40;10.40;;;;;;;10.98;67.68;99411.73;105548;1257;60564;-53
2024/01/19 01:57:06;;;;;;;15.60;10.50;;;;;;;10.97;67.67;99411.58;105361;1251;60414;-54
2024/01/19 01:59:34;;;;;;;15.60;10.10;;;;;;;10.96;67.66;99413.52;105207;1250;73864;-54
2024/01/19 02:02:02;;;;;;;15.60;9.90;;;;;;;10.97;67.75;99411.75;105673;1251;72654;-54
2024/01/19 02:04:30;;;;;;;15.40;9.80;;;;;;;10.97;67.74;99412.44;105580;1251;71609;-54
2024/01/19 02:06:58;;;;;;;18.20;10.60;;;;;;;10.97;67.59;99411.91;105356;1251;60488;-54
2024/01/19 02:09:27;;;;;;;13.60;8.90;;;;;;;10.96;67.63;99420.54;105707;1251;60450;-54
2024/01/19 02:11:54;;;;;;;17.30;9.80;;;;;;;10.96;67.60;99411.77;105664;1255;74904;-53
2024/01/19 02:14:22;;;;;;;18.50;10.10;;;;;;;10.96;67.66;99414.58;105625;1256;72307;-53
2024/01/19 02:16:51;;;;;;;12.90;9.30;;;;;;;10.98;67.64;99420.14;105615;1256;72814;-54
2024/01/19 02:19:19;;;;;;;16.20;10.20;;;;;;;10.99;67.61;99423.44;105343;1259;61135;-53
2024/01/19 02:21:48;;;;;;;14.00;9.10;;;;;;;10.99;67.69;99425.00;105687;1250;60532;-54
2024/01/19 02:24:18;;;;;;;20.90;9.70;;;;;;;10.99;67.43;99421.16;105407;1255;74412;-53
2024/01/19 02:26:45;;;;;;;19.40;10.00;;;;;;;10.97;67.30;99424.37;105723;1251;71388;-53
2024/01/19 02:29:15;;;;;;;15.90;10.00;;;;;;;10.96;67.25;99422.66;105345;1255;72730;-52
2024/01/19 02:31:43;;;;;;;14.30;9.20;;;;;;;10.94;67.22;99417.29;105726;1250;60526;-52
2024/01/19 02:34:10;;;;;;;17.30;10.30;;;;;;;10.92;67.14;99421.38;105283;1251;60488;-52
2024/01/19 02:36:38;;;;;;;22.60;10.00;;;;;;;10.90;67.07;99419.49;105600;1256;73667;-52
2024/01/19 02:39:06;;;;;;;28.20;11.00;;;;;;;10.88;67.17;99417.61;105627;1251;72917;-52
2024/01/19 02:41:34;;;;;;;19.20;10.80;;;;;;;10.89;67.16;99417.44;105609;1251;71420;-53
2024/01/19 02:44:02;;;;;;;16.60;9.10;;;;;;;10.88;67.14;99418.14;105670;1256;60447;-52
2024/01/19 02:46:30;;;;;;;16.40;10.00;;;;;;;10.88;67.12;99421.13;105601;1252;60841;-52
2024/01/19 02:48:57;;;;;;;16.30;10.20;;;;;;;10.87;67.02;99421.17;105423;1258;72802;-53
2024/01/19 02:51:25;;;;;;;19.00;10.00;;;;;;;10.85;67.13;99420.52;105617;1251;72937;-53
2024/01/19 02:53:53;;;;;;;18.10;10.40;;;;;;;10.85;67.18;99418.96;105573;1251;71377;-52
2024/01/19 02:56:21;;;;;;;20.00;10.00;;;;;;;10.85;67.13;99419.84;105632;1257;60481;-54
2024/01/19 02:58:49;;;;;;;15.40;8.80;;;;;;;10.84;67.07;99419.67;105366;1251;60481;-52
2024/01/19 03:01:18;;;;;;;16.80;9.20;;;;;;;10.84;67.14;99423.55;105616;1256;73885;-52
2024/01/19 03:03:46;;;;;;;16.50;8.60;;;;;;;10.83;67.23;99427.79;105339;1259;71651;-52
2024/01/19 03:06:14;;;;;;;15.90;10.60;;;;;;;10.82;67.24;99432.02;105243;1251;72053;-53
2024/01/19 03:08:41;;;;;;;17.50;9.70;;;;;;;10.82;67.28;99426.40;105353;1251;61148;-52
2024/01/19 03:11:09;;;;;;;14.90;8.80;;;;;;;10.82;67.35;99426.91;105374;1251;60592;-53
2024/01/19 03:13:37;;;;;;;17.70;9.20;;;;;;;10.84;67.40;99424.98;105608;1256;72993;-53
2024/01/19 03:16:07;;;;;;;14.70;9.00;;;;;;;10.83;67.36;99427.77;105333;1251;71564;-53
2024/01/19 03:18:35;;;;;;;17.60;8.60;;;;;;;10.83;67.50;99423.21;105598;1251;74074;-51
2024/01/19 03:21:03;;;;;;;12.90;8.30;;;;;;;10.85;67.50;99424.56;105600;1251;60595;-51
2024/01/19 03:23:32;;;;;;;15.00;9.20;;;;;;;10.87;67.58;99423.98;105592;1251;60448;-51
2024/01/19 03:26:00;;;;;;;13.40;8.00;;;;;;;10.89;67.62;99427.77;105393;1252;73902;-52
2024/01/19 03:28:27;;;;;;;14.90;8.60;;;;;;;10.91;67.60;99431.23;105615;1255;71711;-51
2024/01/19 03:30:55;;;;;;;15.80;9.70;;;;;;;10.93;67.68;99436.80;105625;1252;71434;-52
2024/01/19 03:33:23;;;;;;;17.00;8.80;;;;;;;10.94;67.69;99437.80;105664;1256;60485;-53
2024/01/19 03:35:51;;;;;;;17.10;8.70;;;;;;;10.95;67.68;99436.71;105660;1251;60415;-53
2024/01/19 03:38:19;;;;;;;16.00;8.80;;;;;;;10.96;67.71;99440.20;105625;1256;72600;-53
2024/01/19 03:40:47;;;;;;;18.80;9.30;;;;;;;10.97;67.84;99439.98;105669;1251;72839;-54
2024/01/19 03:43:15;;;;;;;15.40;9.80;;;;;;;10.97;67.80;99438.59;105369;1252;71369;-52
2024/01/19 03:45:43;;;;;;;13.40;8.20;;;;;;;10.97;67.78;99440.87;105644;1256;60476;-54
2024/01/19 03:48:11;;;;;;;17.50;7.40;;;;;;;10.98;67.84;99434.88;105619;1250;60473;-54
2024/01/19 03:50:39;;;;;;;13.00;7.60;;;;;;;10.98;67.87;99435.04;105498;1253;72296;-54
2024/01/19 03:53:07;;;;;;;14.70;7.80;;;;;;;10.98;67.91;99435.20;105637;1251;73481;-53
2024/01/19 03:55:34;;;;;;;13.90;7.90;;;;;;;10.99;67.87;99436.44;105336;1251;71758;-55
2024/01/19 03:58:03;;;;;;;12.10;7.20;;;;;;;10.99;68.06;99434.84;105324;1250;60415;-54
2024/01/19 04:00:30;;;;;;;16.30;7.40;;;;;;;10.98;67.93;99434.33;105636;1251;60822;-54
2024/01/19 04:02:58;;;;;;;14.80;7.40;;;;;;;10.97;67.93;99435.24;105664;1255;74098;-54
2024/01/19 04:05:26;;;;;;;14.00;7.60;;;;;;;10.96;67.93;99436.86;105622;1255;71293;-54
2024/01/19 04:07:54;;;;;;;13.60;7.90;;;;;;;10.94;67.90;99436.76;105684;1254;71880;-55
2024/01/19 04:10:22;;;;;;;12.00;7.60;;;;;;;10.92;67.96;99437.52;105599;1257;61275;-53
2024/01/19 04:12:51;;;;;;;13.90;7.70;;;;;;;10.91;68.00;99436.48;105639;1251;60506;-54
2024/01/19 04:15:19;;;;;;;13.40;7.20;;;;;;;10.90;68.01;99438.62;105672;1251;73977;-54
2024/01/19 04:17:47;;;;;;;15.60;7.10;;;;;;;10.89;68.12;99437.25;105625;1252;72481;-54
2024/01/19 04:20:15;;;;;;;17.10;7.60;;;;;;;10.88;68.21;99436.92;105620;1251;71354;-53
2024/01/19 04:22:42;;;;;;;16.70;7.90;;;;;;;10.88;68.30;99442.20;105790;1255;60489;-56
2024/01/19 04:25:10;;;;;;;17.70;7.70;;;;;;;10.87;68.36;99438.88;105660;1252;60539;-54
2024/01/19 04:27:38;;;;;;;11.30;6.10;;;;;;;10.87;68.44;99442.92;105607;1257;72794;-59
2024/01/19 04:30:06;;;;;;;13.40;7.00;;;;;;;10.87;68.48;99444.48;105630;1251;72862;-61
2024/01/19 04:32:34;;;;;;;11.00;6.50;;;;;;;10.87;68.46;99445.18;105726;1251;72773;-61
2024/01/19 04:35:03;;;;;;;15.40;6.70;;;;;;;10.87;68.45;99448.70;105677;1253;60420;-59
2024/01/19 04:37:31;;;;;;;12.10;7.20;;;;;;;10.86;68.43;99450.15;105404;1257;60372;-61
2024/01/19 04:39:59;;;;;;;15.10;7.10;;;;;;;10.85;68.49;99453.14;105596;1256;72549;-60
2024/01/19 04:42:27;;;;;;;16.30;7.40;;;;;;;10.86;68.49;99451.55;105431;1251;71642;-59
2024/01/19 04:44:55;;;;;;;12.70;6.50;;;;;;;10.86;68.55;99454.36;105597;1251;71455;-59
2024/01/19 04:47:23;;;;;;;15.90;7.10;;;;;;;10.86;68.48;99454.70;105570;1251;60473;-60
2024/01/19 04:49:51;;;;;;;16.60;7.00;;;;;;;10.87;68.55;99457.14;105354;1250;60513;-59
2024/01/19 04:52:18;;;;;;;18.40;7.60;;;;;;;10.89;68.59;99463.55;105616;1252;73959;-60
2024/01/19 04:54:46;;;;;;;14.30;6.10;;;;;;;10.91;68.54;99460.35;105561;1251;71427;-59
2024/01/19 04:57:15;;;;;;;11.70;6.00;;;;;;;10.91;68.46;99465.25;105650;1251;72109;-60
2024/01/19 04:59:42;;;;;;;15.10;6.20;;;;;;;10.90;68.37;99468.27;105386;1252;60522;-59
2024/01/19 05:02:10;;;;;;;12.50;6.20;;;;;;;10.87;68.40;99469.08;105619;1251;60466;-61
2024/01/19 05:04:41;;;;;;;13.80;6.20;;;;;;;10.84;68.48;99462.48;105608;1255;72592;-61
2024/01/19 05:07:08;;;;;;;17.10;6.40;;;;;;;10.83;68.52;99461.13;105432;1251;72841;-61
2024/01/19 05:09:36;;;;;;;13.00;6.10;;;;;;;10.81;68.62;99462.94;105309;1252;71404;-61
2024/01/19 05:12:05;;;;;;;14.10;5.80;;;;;;;10.80;68.63;99470.33;105690;1250;60489;-59
2024/01/19 05:14:32;;;;;;;15.30;7.20;;;;;;;10.79;68.67;99462.13;105723;1251;60507;-56
2024/01/19 05:17:00;;;;;;;14.40;6.80;;;;;;;10.78;68.78;99469.32;105614;1255;73871;-52
2024/01/19 05:19:28;;;;;;;12.00;5.80;;;;;;;10.79;68.85;99468.95;105617;1256;72918;-53
2024/01/19 05:21:55;;;;;;;14.80;5.70;;;;;;;10.79;68.84;99468.41;105653;1258;72797;-52
2024/01/19 05:24:23;;;;;;;16.40;6.50;;;;;;;10.79;68.92;99471.39;105600;1251;60638;-54
2024/01/19 05:26:51;;;;;;;21.00;7.60;;;;;;;10.79;69.31;99481.39;105590;1254;60431;-55
2024/01/19 05:29:18;;;;;;;17.00;6.40;;;;;;;10.81;69.56;99480.81;105318;1262;73958;-55
2024/01/19 05:31:46;;;;;;;14.40;6.80;;;;;;;10.83;69.62;99492.88;105539;1251;72870;-55
2024/01/19 05:34:14;;;;;;;17.50;6.20;;;;;;;10.83;69.59;99490.40;105578;1257;73181;-55
2024/01/19 05:36:42;;;;;;;12.60;6.50;;;;;;;10.84;69.57;99491.63;105617;1257;60405;-56
2024/01/19 05:39:10;;;;;;;18.50;6.90;;;;;;;10.83;69.51;99503.91;105648;1252;60652;-55
2024/01/19 05:41:38;;;;;;;16.40;6.70;;;;;;;10.82;69.54;99496.93;105655;1251;73203;-54
2024/01/19 05:44:06;;;;;;;14.00;6.80;;;;;;;10.83;69.54;99505.16;105377;1259;71567;-55
2024/01/19 05:46:34;;;;;;;11.60;6.00;;;;;;;10.84;69.49;99515.83;105615;1251;71449;-55
2024/01/19 05:49:01;;;;;;;10.30;5.80;;;;;;;10.85;69.42;99515.27;105395;1258;61836;-56
2024/01/19 05:51:29;;;;;;;13.30;6.80;;;;;;;10.84;69.27;99517.05;105684;1250;60472;-55
2024/01/19 05:53:58;;;;;;;13.40;6.70;;;;;;;10.83;69.16;99524.10;105682;1251;73831;-56
2024/01/19 05:56:26;;;;;;;15.50;8.00;;;;;;;10.81;69.07;99520.45;105481;1257;72610;-56
2024/01/19 05:58:54;;;;;;;12.50;6.70;;;;;;;10.80;69.02;99514.88;105579;1251;72648;-54
2024/01/19 06:01:22;;;;;;;14.80;6.30;;;;;;;10.79;69.13;99520.88;105714;1252;61804;-58
2024/01/19 06:03:50;;;;;;;14.00;7.00;;;;;;;10.80;69.16;99523.83;105621;1251;60411;-57
2024/01/19 06:06:18;;;;;;;16.20;6.60;;;;;;;10.81;69.17;99524.68;105580;1251;74096;-63
2024/01/19 06:08:45;;;;;;;15.30;6.20;;;;;;;10.83;69.18;99530.24;105211;1251;72088;-61
2024/01/19 06:11:13;;;;;;;14.80;6.80;;;;;;;10.83;69.20;99532.48;105615;1257;72944;-59
2024/01/19 06:13:41;;;;;;;17.30;7.10;;;;;;;10.84;69.09;99536.17;105584;1251;60561;-58
2024/01/19 06:16:11;;;;;;;14.10;6.80;;;;;;;10.84;69.12;99534.58;105568;1251;60482;-58
2024/01/19 06:18:38;;;;;;;16.60;7.00;;;;;;;10.84;69.06;99539.33;105667;1251;72658;-59
2024/01/19 06:21:10;;;;;;;17.20;6.70;;;;;;;10.82;68.89;99536.58;105580;1251;73124;-56
2024/01/19 06:23:38;;;;;;;16.50;7.50;;;;;;;10.80;68.85;99538.04;105356;1252;72470;-59
2024/01/19 06:26:10;;;;;;;19.00;8.20;;;;;;;10.81;69.57;99533.27;105577;1257;60514;-58
2024/01/19 06:28:40;;;;;;;20.70;7.10;;;;;;;10.87;70.45;99529.58;105594;1251;60516;-61
2024/01/19 06:31:10;;;;;;;17.80;7.50;;;;;;;10.92;70.44;99527.88;105594;1257;73889;-59
2024/01/19 06:33:37;;;;;;;17.50;8.80;;;;;;;10.93;70.32;99529.79;105594;1257;71779;-61
2024/01/19 06:36:10;;;;;;;18.70;7.10;;;;;;;10.92;70.26;99529.44;105265;1251;71583;-59
2024/01/19 06:38:38;;;;;;;14.80;7.40;;;;;;;10.92;69.99;99530.15;105697;1257;60536;-60
2024/01/19 06:41:06;;;;;;;16.40;6.80;;;;;;;10.91;69.93;99533.84;105628;1251;60533;-61
2024/01/19 06:43:34;;;;;;;14.50;6.90;;;;;;;10.91;69.78;99539.98;105585;1256;72626;-60
2024/01/19 06:46:01;;;;;;;19.60;8.10;;;;;;;10.93;69.69;99541.19;105143;1259;71577;-60
2024/01/19 06:48:29;;;;;;;16.50;7.30;;;;;;;10.94;69.62;99545.71;105482;1257;72674;-60
2024/01/19 06:50:58;;;;;;;17.90;8.00;;;;;;;10.96;69.54;99544.43;105486;1257;60499;-57
2024/01/19 06:53:26;;;;;;;14.70;7.70;;;;;;;10.98;69.39;99546.81;105488;1250;60495;-60
2024/01/19 06:55:54;;;;;;;15.00;7.20;;;;;;;11.00;69.22;99550.09;105489;1261;73147;-58
2024/01/19 06:58:34;;;;;;;12.90;7.10;;;;;;;11.01;69.09;99555.86;105441;1252;71431;-60
2024/01/19 07:01:02;;;;;;;18.70;8.30;;;;;;;11.02;68.95;99554.95;105467;1251;75412;-58
2024/01/19 07:03:31;;;;;;;15.00;7.40;;;;;;;11.05;68.89;99547.32;105253;1259;60673;-59
2024/01/19 07:05:59;;;;;;;22.50;7.80;;;;;;;11.07;68.80;99542.69;105712;1250;60911;-58
2024/01/19 07:08:27;;;;;;;17.00;7.60;;;;;;;11.10;68.64;99542.27;105500;1251;74630;-59
2024/01/19 07:10:55;;;;;;;20.60;7.10;;;;;;;11.12;68.56;99547.81;105349;1251;73077;-59
2024/01/19 07:13:23;;;;;;;17.40;7.80;;;;;;;11.13;68.40;99547.07;105392;1255;73514;-59
2024/01/19 07:15:51;;;;;;;17.90;7.10;;;;;;;11.13;68.35;99547.42;105651;1252;60566;-58
2024/01/19 07:18:18;;;;;;;19.20;7.70;;;;;;;11.13;68.20;99539.19;105261;1251;60345;-57
2024/01/19 07:20:46;;;;;;;18.90;8.70;;;;;;;11.15;68.19;99540.33;105554;1255;74615;-59
2024/01/19 07:23:15;;;;;;;15.70;7.30;;;;;;;11.17;68.01;99545.73;105570;1257;70898;-61
2024/01/19 07:25:43;;;;;;;16.70;8.30;;;;;;;11.16;68.00;99545.77;109410;1251;71377;-58
2024/01/19 07:28:11;;;;;;;16.70;7.30;;;;;;;11.16;67.90;99541.36;105753;1257;61190;-63
2024/01/19 07:30:38;;;;;;;14.50;7.70;;;;;;;11.17;67.86;99549.61;107935;1256;60303;-60
2024/01/19 07:33:06;;;;;;;19.10;8.70;;;;;;;11.18;67.84;99543.60;105281;1259;73095;-57
2024/01/19 07:35:43;;;;;;;18.00;8.20;;;;;;;11.19;67.83;99539.89;109471;1251;71350;-58
2024/01/19 07:38:11;;;;;;;19.50;8.70;;;;;;;11.21;67.74;99539.67;106202;1252;71548;-57
2024/01/19 07:40:39;;;;;;;13.70;8.60;;;;;;;11.23;67.71;99540.45;109450;1251;60974;-57
2024/01/19 07:43:07;;;;;;;15.50;8.10;;;;;;;11.25;67.70;99539.20;108609;1251;59554;-59
2024/01/19 07:45:34;;;;;;;16.60;8.30;;;;;;;11.28;67.59;99535.95;105508;1256;73614;-57
2024/01/19 07:48:03;;;;;;;17.10;8.10;;;;;;;11.30;67.62;99539.02;105445;1251;71506;-59
2024/01/19 07:50:32;;;;;;;21.90;8.20;;;;;;;11.35;67.50;99543.45;109054;1260;72623;-58
2024/01/19 07:52:59;;;;;;;21.30;8.30;;;;;;;11.38;67.44;99542.82;109460;1251;59874;-56
2024/01/19 07:55:27;;;;;;;19.30;8.80;;;;;;;11.41;67.43;99542.73;108971;1251;60485;-58
2024/01/19 07:57:55;;;;;;;18.50;8.70;;;;;;;11.41;67.48;99550.81;105131;1252;74130;-58
2024/01/19 08:00:23;;;;;;;20.70;9.90;;;;;;;11.43;67.49;99553.38;105600;1257;72552;-58
2024/01/19 08:02:52;;;;;;;17.40;8.40;;;;;;;11.45;67.56;99566.14;109463;1250;71640;-58
2024/01/19 08:05:20;;;;;;;15.90;8.90;;;;;;;11.48;67.44;99574.13;109497;1251;60047;-59
2024/01/19 08:07:48;;;;;;;18.80;8.90;;;;;;;11.50;67.35;99576.34;109472;1250;58171;-58
2024/01/19 08:10:18;;;;;;;17.80;9.10;;;;;;;11.54;67.22;99585.54;109484;1250;75647;-58
2024/01/19 08:12:46;;;;;;;18.20;9.30;;;;;;;11.58;67.15;99591.91;107648;1258;72460;-56
2024/01/19 08:15:15;;;;;;;18.00;10.50;;;;;;;11.65;67.07;99590.65;105665;1252;71673;-59
2024/01/19 08:17:43;;;;;;;14.30;9.90;;;;;;;11.73;66.93;99600.41;105625;1251;61753;-57
2024/01/19 08:20:13;;;;;;;17.00;10.00;;;;;;;11.78;66.72;99598.99;105737;1257;60405;-58
2024/01/19 08:22:41;;;;;;;12.70;9.10;;;;;;;11.85;66.58;99599.67;105769;1256;74401;-57
2024/01/19 08:25:09;;;;;;;17.20;9.80;;;;;;;11.92;66.41;99592.27;105830;1255;71939;-61
2024/01/19 08:27:44;;;;;;;17.30;10.60;;;;;;;11.97;66.12;99581.25;105687;1252;73781;-60
2024/01/19 08:30:12;;;;;;;14.80;10.30;;;;;;;11.97;65.69;99574.90;105410;1260;61516;-58
2024/01/19 08:32:43;;;;;;;16.60;11.00;;;;;;;11.96;65.46;99577.56;105230;1251;620879;-59
2024/01/19 08:35:11;;;;;;;16.90;10.80;;;;;;;11.93;65.19;99585.73;105707;1251;76292;-60
2024/01/19 08:37:41;;;;;;;16.60;12.30;;;;;;;11.92;65.16;99592.77;105698;1251;74756;-60
2024/01/19 08:40:13;;;;;;;18.10;10.80;;;;;;;11.91;65.03;99604.04;105544;1251;74785;-63
2024/01/19 08:42:40;;;;;;;15.80;11.00;;;;;;;11.91;64.95;99608.45;105497;1259;61425;-60
2024/01/19 08:45:08;;;;;;;14.70;10.20;;;;;;;11.91;64.96;99619.87;105641;1257;61317;-60
2024/01/19 08:47:37;;;;;;;15.40;10.30;;;;;;;11.93;64.85;99625.80;105682;1256;76616;-61
2024/01/19 08:50:06;;;;;;;17.50;10.20;;;;;;;11.94;64.84;99629.45;105731;1252;74031;-61
2024/01/19 08:52:35;;;;;;;18.00;10.70;;;;;;;11.96;64.67;99634.85;105382;1257;74784;-59
2024/01/19 08:55:03;;;;;;;14.10;10.10;;;;;;;11.98;64.57;99625.49;105725;1257;60523;-60
2024/01/19 08:57:32;;;;;;;15.70;9.90;;;;;;;11.98;64.37;99614.08;105762;1251;61743;-60
2024/01/19 09:00:04;;;;;;;16.20;10.70;;;;;;;11.95;63.98;99618.36;105731;1251;74352;-60
2024/01/19 09:02:33;;;;;;;17.20;11.00;;;;;;;11.93;63.89;99626.85;105700;1256;72371;-60
2024/01/19 09:05:01;;;;;;;12.90;9.60;;;;;;;11.92;63.94;99630.38;105439;1251;71788;-61
2024/01/19 09:07:29;;;;;;;13.10;10.00;;;;;;;11.93;63.93;99631.25;105469;1260;60307;-59
2024/01/19 09:09:57;;;;;;;12.60;9.80;;;;;;;11.95;63.81;99631.19;105106;1263;62244;-60
2024/01/19 09:12:27;;;;;;;11.90;9.20;;;;;;;11.97;63.72;99626.06;105640;1251;74029;-59
2024/01/19 09:14:55;;;;;;;12.40;9.30;;;;;;;11.96;63.67;99629.40;105734;1252;72768;-61
2024/01/19 09:17:23;;;;;;;12.50;9.70;;;;;;;11.96;63.72;99636.96;105662;1251;73032;-60
2024/01/19 09:19:51;;;;;;;12.20;9.30;;;;;;;11.99;63.71;99637.08;105394;1260;60638;-58
2024/01/19 09:22:19;;;;;;;12.20;9.20;;;;;;;12.02;63.65;99627.98;105698;1251;60902;-61
2024/01/19 09:24:47;;;;;;;10.30;8.60;;;;;;;12.04;63.47;99624.25;105655;1257;74740;-60
2024/01/19 09:27:14;;;;;;;11.00;9.20;;;;;;;12.04;63.47;99620.36;105737;1256;72349;-62
2024/01/19 09:29:42;;;;;;;12.40;9.30;;;;;;;12.05;63.33;99624.23;105326;1251;72098;-59
2024/01/19 09:32:12;;;;;;;12.90;9.20;;;;;;;12.03;63.25;99623.73;105611;1257;61335;-61
2024/01/19 09:34:41;;;;;;;12.30;9.40;;;;;;;12.02;63.19;99622.20;105601;1257;60482;-61
2024/01/19 09:37:09;;;;;;;15.10;9.40;;;;;;;11.98;63.13;99626.00;107809;1252;73852;-59
2024/01/19 09:39:37;;;;;;;10.70;9.00;;;;;;;11.96;63.21;99638.20;109448;1251;73478;-60
2024/01/19 09:42:14;;;;;;;11.00;8.40;;;;;;;11.94;63.26;99640.55;109356;1251;73060;-59
2024/01/19 09:44:44;;;;;;;12.60;8.70;;;;;;;11.92;63.27;99642.52;109407;1250;60612;-59
2024/01/19 09:47:17;;;;;;;11.70;9.00;;;;;;;11.93;63.44;99637.23;109455;1251;60343;-61
2024/01/19 09:50:03;;;;;;;11.40;9.50;;;;;;;11.94;63.40;99637.05;109470;1251;74012;-60
2024/01/19 09:53:01;;;;;;;11.60;9.90;;;;;;;11.95;63.48;99641.04;109490;1251;72497;-59
2024/01/19 09:55:29;;;;;;;11.60;9.50;;;;;;;11.95;63.45;99648.06;106456;1252;74094;-58
2024/01/19 09:57:57;;;;;;;11.40;9.00;;;;;;;11.96;63.48;99647.50;106597;1258;62287;-61
2024/01/19 10:00:25;;;;;;;12.00;9.20;;;;;;;11.97;63.60;99656.29;105396;1257;60314;-59
2024/01/19 10:02:53;;;;;;;11.80;10.00;;;;;;;11.98;63.69;99665.04;105412;1251;73512;-60
2024/01/19 10:05:22;;;;;;;11.80;9.00;;;;;;;11.98;63.57;99661.00;105542;1252;73583;-60
2024/01/19 10:07:55;;;;;;;11.10;9.50;;;;;;;11.95;63.68;99657.92;105427;1255;72480;-59
2024/01/19 10:10:25;;;;;;;12.10;9.40;;;;;;;11.91;63.74;99658.88;105525;1252;60522;-62
2024/01/19 10:12:54;;;;;;;12.20;9.60;;;;;;;11.87;63.84;99664.64;105488;1252;60469;-60
2024/01/19 10:15:21;;;;;;;14.70;9.90;;;;;;;11.84;64.04;99676.48;105366;1251;73592;-60
2024/01/19 10:17:49;;;;;;;23.60;12.30;;;;;;;11.84;64.41;99679.48;105349;1257;73138;-60
2024/01/19 10:20:17;;;;;;;12.40;10.00;;;;;;;11.85;64.52;99687.88;105567;1257;73187;-62
2024/01/19 10:22:45;;;;;;;15.20;11.10;;;;;;;11.86;64.78;99697.00;105604;1252;61937;-61
2024/01/19 10:25:13;;;;;;;11.30;10.10;;;;;;;11.86;64.95;99694.17;105370;1251;60436;-62
2024/01/19 10:27:46;;;;;;;12.30;9.60;;;;;;;11.87;64.92;99693.09;105591;1251;74925;-60
2024/01/19 10:30:16;;;;;;;14.20;10.30;;;;;;;11.86;64.92;99702.44;105793;1257;73062;-62
2024/01/19 10:32:45;;;;;;;13.70;11.20;;;;;;;11.85;65.03;99708.44;105488;1256;72180;-60
2024/01/19 10:35:21;;;;;;;11.20;9.70;;;;;;;11.86;65.04;99705.07;105449;1253;63838;-62
2024/01/19 10:37:49;;;;;;;12.80;9.80;;;;;;;11.90;64.99;99700.20;105496;1253;60472;-61
2024/01/19 10:40:23;;;;;;;14.70;11.20;;;;;;;11.97;65.00;99703.55;105545;1254;73911;-60
2024/01/19 10:42:58;;;;;;;16.90;10.20;;;;;;;12.05;64.85;99700.15;105637;1257;72563;-61
2024/01/19 10:45:28;;;;;;;14.10;9.70;;;;;;;12.14;64.97;99696.52;105700;1251;71304;-66
2024/01/19 10:47:57;;;;;;;13.90;10.30;;;;;;;12.26;64.98;99706.01;105499;1257;60392;-63
2024/01/19 10:50:28;;;;;;;14.00;10.30;;;;;;;12.40;65.08;99718.03;105072;1251;60664;-62
2024/01/19 10:52:59;;;;;;;17.30;10.00;;;;;;;12.55;65.01;99717.21;105106;1254;74735;-63
2024/01/19 10:55:28;;;;;;;12.40;10.00;;;;;;;12.68;64.78;99716.23;105406;1258;73746;-62
2024/01/19 10:58:05;;;;;;;11.90;9.90;;;;;;;12.81;64.62;99733.94;105565;1256;72931;-61
2024/01/19 11:00:38;;;;;;;13.10;10.50;;;;;;;12.92;64.37;99743.43;105462;1254;61849;-63
2024/01/19 11:03:06;;;;;;;12.00;9.50;;;;;;;12.99;64.12;99749.34;105559;1251;60421;-62
2024/01/19 11:05:34;;;;;;;13.30;10.50;;;;;;;13.05;63.86;99757.08;105570;1252;74548;-62
2024/01/19 11:08:03;;;;;;;11.80;9.80;;;;;;;13.09;63.51;99758.69;105253;1260;72674;-60
2024/01/19 11:10:31;;;;;;;12.00;10.50;;;;;;;13.11;63.14;99755.63;105466;1253;72965;-60
2024/01/19 11:13:01;;;;;;;13.00;10.50;;;;;;;13.13;62.86;99759.77;105525;1257;60422;-62
2024/01/19 11:15:34;;;;;;;11.40;9.50;;;;;;;13.18;62.54;99758.70;105196;1251;60921;-61
2024/01/19 11:18:04;;;;;;;12.70;9.70;;;;;;;13.27;62.31;99761.42;105519;1257;73702;-58
2024/01/19 11:20:33;;;;;;;12.30;9.70;;;;;;;13.34;62.08;99755.55;105645;1252;73499;-60